sensor_id;sensor_type;location;lat;lon;timestamp;temperature;humidity
65472;DHT22;52068;50.710;14.492;2023-11-19T00:00:21;27.29;33.38
65472;DHT22;52068;50.710;14.492;2023-11-19T00:02:47;27.44;33.07
65472;DHT22;52068;50.710;14.492;2023-11-19T00:05:13;27.60;32.79
65472;DHT22;52068;50.710;14.492;2023-11-19T00:07:39;27.78;32.61
65472;DHT22;52068;50.710;14.492;2023-11-19T00:10:15;27.87;32.29
65472;DHT22;52068;50.710;14.492;2023-11-19T00:12:45;27.90;32.28
65472;DHT22;52068;50.710;14.492;2023-11-19T00:15:21;27.91;32.24
65472;DHT22;52068;50.710;14.492;2023-11-19T00:17:47;27.85;32.29
65472;DHT22;52068;50.710;14.492;2023-11-19T00:20:14;27.78;32.42
65472;DHT22;52068;50.710;14.492;2023-11-19T00:22:43;27.66;32.67
65472;DHT22;52068;50.710;14.492;2023-11-19T00:25:09;27.51;32.86
65472;DHT22;52068;50.710;14.492;2023-11-19T00:27:35;27.43;33.10
65472;DHT22;52068;50.710;14.492;2023-11-19T00:30:00;27.22;33.33
65472;DHT22;52068;50.710;14.492;2023-11-19T00:32:26;27.06;33.72
65472;DHT22;52068;50.710;14.492;2023-11-19T00:34:51;26.94;33.88
65472;DHT22;52068;50.710;14.492;2023-11-19T00:37:17;26.82;34.14
65472;DHT22;52068;50.710;14.492;2023-11-19T00:39:43;26.71;34.32
65472;DHT22;52068;50.710;14.492;2023-11-19T00:42:11;26.58;34.45
65472;DHT22;52068;50.710;14.492;2023-11-19T00:44:36;26.48;34.64
65472;DHT22;52068;50.710;14.492;2023-11-19T00:47:02;26.43;34.73
65472;DHT22;52068;50.710;14.492;2023-11-19T00:49:28;26.35;34.88
65472;DHT22;52068;50.710;14.492;2023-11-19T00:51:53;26.25;35.01
65472;DHT22;52068;50.710;14.492;2023-11-19T00:54:18;26.23;35.09
65472;DHT22;52068;50.710;14.492;2023-11-19T00:56:44;26.21;35.12
65472;DHT22;52068;50.710;14.492;2023-11-19T00:59:10;26.24;35.10
65472;DHT22;52068;50.710;14.492;2023-11-19T01:01:35;26.31;34.96
65472;DHT22;52068;50.710;14.492;2023-11-19T01:04:01;26.44;34.78
65472;DHT22;52068;50.710;14.492;2023-11-19T01:06:27;26.52;34.65
65472;DHT22;52068;50.710;14.492;2023-11-19T01:08:53;26.59;34.55
65472;DHT22;52068;50.710;14.492;2023-11-19T01:11:20;26.76;34.23
65472;DHT22;52068;50.710;14.492;2023-11-19T01:13:46;27.10;33.73
65472;DHT22;52068;50.710;14.492;2023-11-19T01:16:11;27.42;33.16
65472;DHT22;52068;50.710;14.492;2023-11-19T01:18:38;27.71;32.67
65472;DHT22;52068;50.710;14.492;2023-11-19T01:21:04;27.93;32.31
65472;DHT22;52068;50.710;14.492;2023-11-19T01:23:29;28.09;32.05
65472;DHT22;52068;50.710;14.492;2023-11-19T01:25:55;28.18;31.85
65472;DHT22;52068;50.710;14.492;2023-11-19T01:28:20;28.28;31.73
65472;DHT22;52068;50.710;14.492;2023-11-19T01:30:45;28.31;31.62
65472;DHT22;52068;50.710;14.492;2023-11-19T01:33:11;28.28;31.72
65472;DHT22;52068;50.710;14.492;2023-11-19T01:35:36;28.24;31.76
65472;DHT22;52068;50.710;14.492;2023-11-19T01:38:01;28.16;31.88
65472;DHT22;52068;50.710;14.492;2023-11-19T01:40:27;28.08;31.98
65472;DHT22;52068;50.710;14.492;2023-11-19T01:42:52;28.02;32.09
65472;DHT22;52068;50.710;14.492;2023-11-19T01:45:28;27.93;32.27
65472;DHT22;52068;50.710;14.492;2023-11-19T01:47:55;27.83;32.47
65472;DHT22;52068;50.710;14.492;2023-11-19T01:50:21;27.71;32.59
65472;DHT22;52068;50.710;14.492;2023-11-19T01:52:47;27.58;32.79
65472;DHT22;52068;50.710;14.492;2023-11-19T01:55:13;27.53;32.94
65472;DHT22;52068;50.710;14.492;2023-11-19T01:57:39;27.46;33.05
65472;DHT22;52068;50.710;14.492;2023-11-19T02:00:07;27.42;33.14
65472;DHT22;52068;50.710;14.492;2023-11-19T02:02:36;27.33;33.31
65472;DHT22;52068;50.710;14.492;2023-11-19T02:05:02;27.22;33.51
65472;DHT22;52068;50.710;14.492;2023-11-19T02:07:28;27.17;33.60
65472;DHT22;52068;50.710;14.492;2023-11-19T02:09:54;27.12;33.64
65472;DHT22;52068;50.710;14.492;2023-11-19T02:12:19;27.09;33.74
65472;DHT22;52068;50.710;14.492;2023-11-19T02:14:45;27.00;33.84
65472;DHT22;52068;50.710;14.492;2023-11-19T02:19:52;26.84;34.18
65472;DHT22;52068;50.710;14.492;2023-11-19T02:22:18;26.78;34.20
65472;DHT22;52068;50.710;14.492;2023-11-19T02:24:45;26.78;34.24
65472;DHT22;52068;50.710;14.492;2023-11-19T02:30:01;26.78;34.24
65472;DHT22;52068;50.710;14.492;2023-11-19T02:32:28;26.81;34.19
65472;DHT22;52068;50.710;14.492;2023-11-19T02:34:56;26.79;34.17
65472;DHT22;52068;50.710;14.492;2023-11-19T02:37:21;26.81;34.18
65472;DHT22;52068;50.710;14.492;2023-11-19T02:39:46;26.78;34.22
65472;DHT22;52068;50.710;14.492;2023-11-19T02:42:12;26.78;34.15
65472;DHT22;52068;50.710;14.492;2023-11-19T02:44:38;26.82;34.14
65472;DHT22;52068;50.710;14.492;2023-11-19T02:47:05;26.91;33.97
65472;DHT22;52068;50.710;14.492;2023-11-19T02:49:33;26.96;33.88
65472;DHT22;52068;50.710;14.492;2023-11-19T02:51:58;27.07;33.73
65472;DHT22;52068;50.710;14.492;2023-11-19T02:54:24;27.20;33.54
65472;DHT22;52068;50.710;14.492;2023-11-19T02:56:52;27.33;33.32
65472;DHT22;52068;50.710;14.492;2023-11-19T02:59:21;27.44;33.05
65472;DHT22;52068;50.710;14.492;2023-11-19T03:01:53;27.54;32.90
65472;DHT22;52068;50.710;14.492;2023-11-19T03:04:19;27.64;32.78
65472;DHT22;52068;50.710;14.492;2023-11-19T03:06:48;27.71;32.65
65472;DHT22;52068;50.710;14.492;2023-11-19T03:09:14;27.76;32.58
65472;DHT22;52068;50.710;14.492;2023-11-19T03:11:39;27.83;32.46
65472;DHT22;52068;50.710;14.492;2023-11-19T03:14:04;27.88;32.33
65472;DHT22;52068;50.710;14.492;2023-11-19T03:16:30;27.93;32.29
65472;DHT22;52068;50.710;14.492;2023-11-19T03:18:55;27.97;32.17
65472;DHT22;52068;50.710;14.492;2023-11-19T03:21:31;28.04;32.11
65472;DHT22;52068;50.710;14.492;2023-11-19T03:23:57;28.07;32.07
65472;DHT22;52068;50.710;14.492;2023-11-19T03:26:26;28.08;31.99
65472;DHT22;52068;50.710;14.492;2023-11-19T03:28:52;28.12;31.95
65472;DHT22;52068;50.710;14.492;2023-11-19T03:31:18;28.14;31.91
65472;DHT22;52068;50.710;14.492;2023-11-19T03:33:44;28.18;31.86
65472;DHT22;52068;50.710;14.492;2023-11-19T03:36:10;28.18;31.81
65472;DHT22;52068;50.710;14.492;2023-11-19T03:38:35;28.18;31.80
65472;DHT22;52068;50.710;14.492;2023-11-19T03:41:09;28.19;31.82
65472;DHT22;52068;50.710;14.492;2023-11-19T03:43:35;28.18;31.78
65472;DHT22;52068;50.710;14.492;2023-11-19T03:46:00;28.16;31.81
65472;DHT22;52068;50.710;14.492;2023-11-19T03:48:25;28.19;31.83
65472;DHT22;52068;50.710;14.492;2023-11-19T03:50:51;28.21;31.82
65472;DHT22;52068;50.710;14.492;2023-11-19T03:53:16;28.21;31.77
65472;DHT22;52068;50.710;14.492;2023-11-19T03:55:42;28.19;31.80
65472;DHT22;52068;50.710;14.492;2023-11-19T03:58:07;28.19;31.80
65472;DHT22;52068;50.710;14.492;2023-11-19T04:00:32;28.21;31.76
65472;DHT22;52068;50.710;14.492;2023-11-19T04:02:58;28.21;31.76
65472;DHT22;52068;50.710;14.492;2023-11-19T04:05:23;28.25;31.71
65472;DHT22;52068;50.710;14.492;2023-11-19T04:07:49;28.31;31.61
65472;DHT22;52068;50.710;14.492;2023-11-19T04:10:14;28.38;31.56
65472;DHT22;52068;50.710;14.492;2023-11-19T04:12:41;28.42;31.44
65472;DHT22;52068;50.710;14.492;2023-11-19T04:15:08;28.46;31.41
65472;DHT22;52068;50.710;14.492;2023-11-19T04:17:34;28.52;31.28
65472;DHT22;52068;50.710;14.492;2023-11-19T04:19:59;28.60;31.19
65472;DHT22;52068;50.710;14.492;2023-11-19T04:22:24;28.69;31.03
65472;DHT22;52068;50.710;14.492;2023-11-19T04:24:50;28.79;30.83
65472;DHT22;52068;50.710;14.492;2023-11-19T04:27:15;28.89;30.69
65472;DHT22;52068;50.710;14.492;2023-11-19T04:29:41;28.99;30.59
65472;DHT22;52068;50.710;14.492;2023-11-19T04:32:06;29.06;30.49
65472;DHT22;52068;50.710;14.492;2023-11-19T04:34:32;29.11;30.39
65472;DHT22;52068;50.710;14.492;2023-11-19T04:36:57;29.17;30.25
65472;DHT22;52068;50.710;14.492;2023-11-19T04:39:26;29.23;30.28
65472;DHT22;52068;50.710;14.492;2023-11-19T04:41:52;29.27;30.16
65472;DHT22;52068;50.710;14.492;2023-11-19T04:44:20;29.30;30.19
65472;DHT22;52068;50.710;14.492;2023-11-19T04:46:46;29.24;30.23
65472;DHT22;52068;50.710;14.492;2023-11-19T04:49:12;29.18;30.27
65472;DHT22;52068;50.710;14.492;2023-11-19T04:51:39;29.10;30.39
65472;DHT22;52068;50.710;14.492;2023-11-19T04:54:05;28.94;30.61
65472;DHT22;52068;50.710;14.492;2023-11-19T04:56:31;28.84;30.79
65472;DHT22;52068;50.710;14.492;2023-11-19T04:58:57;28.69;31.03
65472;DHT22;52068;50.710;14.492;2023-11-19T05:01:22;28.57;31.24
65472;DHT22;52068;50.710;14.492;2023-11-19T05:03:48;28.44;31.37
65472;DHT22;52068;50.710;14.492;2023-11-19T05:06:13;28.32;31.57
65472;DHT22;52068;50.710;14.492;2023-11-19T05:08:38;28.18;31.77
65472;DHT22;52068;50.710;14.492;2023-11-19T05:11:04;28.08;31.93
65472;DHT22;52068;50.710;14.492;2023-11-19T05:13:31;27.98;32.16
65472;DHT22;52068;50.710;14.492;2023-11-19T05:15:56;27.91;32.27
65472;DHT22;52068;50.710;14.492;2023-11-19T05:18:21;27.81;32.38
65472;DHT22;52068;50.710;14.492;2023-11-19T05:20:47;27.73;32.57
65472;DHT22;52068;50.710;14.492;2023-11-19T05:23:12;27.61;32.67
65472;DHT22;52068;50.710;14.492;2023-11-19T05:25:38;27.53;32.82
65472;DHT22;52068;50.710;14.492;2023-11-19T05:28:03;27.50;32.94
65472;DHT22;52068;50.710;14.492;2023-11-19T05:30:28;27.43;33.07
65472;DHT22;52068;50.710;14.492;2023-11-19T05:32:54;27.39;33.10
65472;DHT22;52068;50.710;14.492;2023-11-19T05:35:19;27.37;33.13
65472;DHT22;52068;50.710;14.492;2023-11-19T05:37:45;27.43;33.04
65472;DHT22;52068;50.710;14.492;2023-11-19T05:40:10;27.49;32.95
65472;DHT22;52068;50.710;14.492;2023-11-19T05:42:42;27.57;32.79
65472;DHT22;52068;50.710;14.492;2023-11-19T05:45:11;27.67;32.67
65472;DHT22;52068;50.710;14.492;2023-11-19T05:47:36;27.76;32.50
65472;DHT22;52068;50.710;14.492;2023-11-19T05:50:02;27.84;32.40
65472;DHT22;52068;50.710;14.492;2023-11-19T05:52:28;27.88;32.30
65472;DHT22;52068;50.710;14.492;2023-11-19T05:54:59;27.94;32.27
65472;DHT22;52068;50.710;14.492;2023-11-19T05:57:27;28.01;32.06
65472;DHT22;52068;50.710;14.492;2023-11-19T05:59:54;28.04;31.97
65472;DHT22;52068;50.710;14.492;2023-11-19T06:02:19;28.09;31.96
65472;DHT22;52068;50.710;14.492;2023-11-19T06:04:45;28.14;31.90
65472;DHT22;52068;50.710;14.492;2023-11-19T06:07:13;28.19;31.79
65472;DHT22;52068;50.710;14.492;2023-11-19T06:09:38;28.18;31.77
65472;DHT22;52068;50.710;14.492;2023-11-19T06:12:05;28.25;31.71
65472;DHT22;52068;50.710;14.492;2023-11-19T06:14:32;28.28;31.67
65472;DHT22;52068;50.710;14.492;2023-11-19T06:16:58;28.34;31.60
65472;DHT22;52068;50.710;14.492;2023-11-19T06:19:23;28.32;31.61
65472;DHT22;52068;50.710;14.492;2023-11-19T06:21:50;28.32;31.60
65472;DHT22;52068;50.710;14.492;2023-11-19T06:24:16;28.32;31.54
65472;DHT22;52068;50.710;14.492;2023-11-19T06:26:41;28.35;31.51
65472;DHT22;52068;50.710;14.492;2023-11-19T06:29:06;28.38;31.60
65472;DHT22;52068;50.710;14.492;2023-11-19T06:31:32;28.38;31.53
65472;DHT22;52068;50.710;14.492;2023-11-19T06:33:57;28.38;31.50
65472;DHT22;52068;50.710;14.492;2023-11-19T06:36:23;28.42;31.44
65472;DHT22;52068;50.710;14.492;2023-11-19T06:38:48;28.42;31.47
65472;DHT22;52068;50.710;14.492;2023-11-19T06:41:13;28.41;31.48
65472;DHT22;52068;50.710;14.492;2023-11-19T06:43:39;28.41;31.45
65472;DHT22;52068;50.710;14.492;2023-11-19T06:46:04;28.42;31.47
65472;DHT22;52068;50.710;14.492;2023-11-19T06:48:34;28.39;31.47
65472;DHT22;52068;50.710;14.492;2023-11-19T06:51:00;28.39;31.47
65472;DHT22;52068;50.710;14.492;2023-11-19T06:53:25;28.39;31.48
65472;DHT22;52068;50.710;14.492;2023-11-19T06:55:53;28.38;31.53
65472;DHT22;52068;50.710;14.492;2023-11-19T06:58:19;28.35;31.54
65472;DHT22;52068;50.710;14.492;2023-11-19T07:00:44;28.32;31.58
65472;DHT22;52068;50.710;14.492;2023-11-19T07:03:11;28.29;31.62
65472;DHT22;52068;50.710;14.492;2023-11-19T07:05:36;28.29;31.62
65472;DHT22;52068;50.710;14.492;2023-11-19T07:08:04;28.22;31.74
65472;DHT22;52068;50.710;14.492;2023-11-19T07:10:32;28.22;31.77
65472;DHT22;52068;50.710;14.492;2023-11-19T07:12:57;28.15;31.85
65472;DHT22;52068;50.710;14.492;2023-11-19T07:15:23;28.15;31.86
65472;DHT22;52068;50.710;14.492;2023-11-19T07:17:48;28.11;31.90
65472;DHT22;52068;50.710;14.492;2023-11-19T07:20:13;28.07;31.93
65472;DHT22;52068;50.710;14.492;2023-11-19T07:22:45;28.08;32.01
65472;DHT22;52068;50.710;14.492;2023-11-19T07:25:13;28.02;32.07
65472;DHT22;52068;50.710;14.492;2023-11-19T07:27:38;28.02;32.20
65472;DHT22;52068;50.710;14.492;2023-11-19T07:30:05;28.01;32.14
65472;DHT22;52068;50.710;14.492;2023-11-19T07:32:32;27.98;32.18
65472;DHT22;52068;50.710;14.492;2023-11-19T07:34:58;27.97;32.15
65472;DHT22;52068;50.710;14.492;2023-11-19T07:37:23;27.95;32.23
65472;DHT22;52068;50.710;14.492;2023-11-19T07:39:49;27.93;32.32
65472;DHT22;52068;50.710;14.492;2023-11-19T07:42:14;27.88;32.35
65472;DHT22;52068;50.710;14.492;2023-11-19T07:44:40;27.91;32.30
65472;DHT22;52068;50.710;14.492;2023-11-19T07:47:06;27.90;32.31
65472;DHT22;52068;50.710;14.492;2023-11-19T07:49:32;27.93;32.28
65472;DHT22;52068;50.710;14.492;2023-11-19T07:51:58;27.90;32.25
65472;DHT22;52068;50.710;14.492;2023-11-19T07:54:23;27.91;32.31
65472;DHT22;52068;50.710;14.492;2023-11-19T07:56:49;27.88;32.30
65472;DHT22;52068;50.710;14.492;2023-11-19T07:59:15;27.88;32.30
65472;DHT22;52068;50.710;14.492;2023-11-19T08:01:41;27.91;32.25
65472;DHT22;52068;50.710;14.492;2023-11-19T08:04:06;27.90;32.18
65472;DHT22;52068;50.710;14.492;2023-11-19T08:06:32;27.97;32.07
65472;DHT22;52068;50.710;14.492;2023-11-19T08:08:57;28.01;31.97
65472;DHT22;52068;50.710;14.492;2023-11-19T08:11:23;28.07;31.80
65472;DHT22;52068;50.710;14.492;2023-11-19T08:13:49;28.18;31.69
65472;DHT22;52068;50.710;14.492;2023-11-19T08:16:14;28.26;31.52
65472;DHT22;52068;50.710;14.492;2023-11-19T08:18:42;28.36;31.33
65472;DHT22;52068;50.710;14.492;2023-11-19T08:21:08;28.45;31.18
65472;DHT22;52068;50.710;14.492;2023-11-19T08:23:33;28.52;30.99
65472;DHT22;52068;50.710;14.492;2023-11-19T08:25:59;28.60;30.87
65472;DHT22;52068;50.710;14.492;2023-11-19T08:28:25;28.67;30.78
65472;DHT22;52068;50.710;14.492;2023-11-19T08:30:50;28.70;30.76
65472;DHT22;52068;50.710;14.492;2023-11-19T08:33:16;28.77;30.64
65472;DHT22;52068;50.710;14.492;2023-11-19T08:35:42;28.79;30.54
65472;DHT22;52068;50.710;14.492;2023-11-19T08:38:07;28.83;30.48
65472;DHT22;52068;50.710;14.492;2023-11-19T08:40:33;28.90;30.43
65472;DHT22;52068;50.710;14.492;2023-11-19T08:42:58;28.92;30.39
65472;DHT22;52068;50.710;14.492;2023-11-19T08:45:24;28.90;30.37
65472;DHT22;52068;50.710;14.492;2023-11-19T08:47:49;28.92;30.39
65472;DHT22;52068;50.710;14.492;2023-11-19T08:50:15;28.90;30.40
65472;DHT22;52068;50.710;14.492;2023-11-19T08:52:41;28.92;30.39
65472;DHT22;52068;50.710;14.492;2023-11-19T08:55:07;28.92;30.37
65472;DHT22;52068;50.710;14.492;2023-11-19T08:57:35;28.93;30.39
65472;DHT22;52068;50.710;14.492;2023-11-19T09:00:00;28.89;30.39
65472;DHT22;52068;50.710;14.492;2023-11-19T09:02:26;28.90;30.39
65472;DHT22;52068;50.710;14.492;2023-11-19T09:04:51;28.86;30.37
65472;DHT22;52068;50.710;14.492;2023-11-19T09:07:17;28.89;30.45
65472;DHT22;52068;50.710;14.492;2023-11-19T09:09:42;28.82;30.51
65472;DHT22;52068;50.710;14.492;2023-11-19T09:12:08;28.83;30.50
65472;DHT22;52068;50.710;14.492;2023-11-19T09:14:33;28.77;30.62
65472;DHT22;52068;50.710;14.492;2023-11-19T09:16:59;28.77;30.62
65472;DHT22;52068;50.710;14.492;2023-11-19T09:19:25;28.84;30.58
65472;DHT22;52068;50.710;14.492;2023-11-19T09:21:52;28.87;30.52
65472;DHT22;52068;50.710;14.492;2023-11-19T09:24:18;28.86;30.51
65472;DHT22;52068;50.710;14.492;2023-11-19T09:26:43;28.89;30.47
65472;DHT22;52068;50.710;14.492;2023-11-19T09:29:09;28.94;30.38
65472;DHT22;52068;50.710;14.492;2023-11-19T09:31:34;29.02;30.34
65472;DHT22;52068;50.710;14.492;2023-11-19T09:34:00;29.10;30.23
65472;DHT22;52068;50.710;14.492;2023-11-19T09:36:26;29.17;30.18
65472;DHT22;52068;50.710;14.492;2023-11-19T09:38:51;29.21;30.08
65472;DHT22;52068;50.710;14.492;2023-11-19T09:41:17;29.26;30.09
65472;DHT22;52068;50.710;14.492;2023-11-19T09:43:45;29.26;30.03
65472;DHT22;52068;50.710;14.492;2023-11-19T09:46:10;29.27;29.99
65472;DHT22;52068;50.710;14.492;2023-11-19T09:48:38;29.27;30.02
65472;DHT22;52068;50.710;14.492;2023-11-19T09:51:07;29.24;30.28
65472;DHT22;52068;50.710;14.492;2023-11-19T09:53:34;29.18;30.30
65472;DHT22;52068;50.710;14.492;2023-11-19T09:56:01;29.11;30.39
65472;DHT22;52068;50.710;14.492;2023-11-19T09:58:29;29.02;31.20
65472;DHT22;52068;50.710;14.492;2023-11-19T10:00:54;28.83;32.90
65472;DHT22;52068;50.710;14.492;2023-11-19T10:03:21;28.67;32.44
65472;DHT22;52068;50.710;14.492;2023-11-19T10:05:48;28.49;32.53
65472;DHT22;52068;50.710;14.492;2023-11-19T10:08:13;28.32;32.60
65472;DHT22;52068;50.710;14.492;2023-11-19T10:10:39;28.15;32.70
65472;DHT22;52068;50.710;14.492;2023-11-19T10:13:04;27.95;32.90
65472;DHT22;52068;50.710;14.492;2023-11-19T10:15:36;27.76;33.17
65472;DHT22;52068;50.710;14.492;2023-11-19T10:18:02;27.56;33.55
65472;DHT22;52068;50.710;14.492;2023-11-19T10:20:37;27.40;33.78
65472;DHT22;52068;50.710;14.492;2023-11-19T10:23:03;27.20;34.04
65472;DHT22;52068;50.710;14.492;2023-11-19T10:25:29;27.10;34.20
65472;DHT22;52068;50.710;14.492;2023-11-19T10:27:56;26.99;34.35
65472;DHT22;52068;50.710;14.492;2023-11-19T10:30:29;26.99;34.33
65472;DHT22;52068;50.710;14.492;2023-11-19T10:33:15;27.10;34.15
65472;DHT22;52068;50.710;14.492;2023-11-19T10:35:53;27.29;33.79
65472;DHT22;52068;50.710;14.492;2023-11-19T10:38:19;27.53;33.40
65472;DHT22;52068;50.710;14.492;2023-11-19T10:40:44;27.84;32.89
65472;DHT22;52068;50.710;14.492;2023-11-19T10:43:10;28.18;32.37
65472;DHT22;52068;50.710;14.492;2023-11-19T10:45:37;28.49;31.77
65472;DHT22;52068;50.710;14.492;2023-11-19T10:48:03;28.83;31.30
65472;DHT22;52068;50.710;14.492;2023-11-19T10:50:36;29.07;30.93
65472;DHT22;52068;50.710;14.492;2023-11-19T10:53:02;29.30;30.54
65472;DHT22;52068;50.710;14.492;2023-11-19T10:55:32;29.50;30.22
65472;DHT22;52068;50.710;14.492;2023-11-19T10:58:00;29.71;29.93
65472;DHT22;52068;50.710;14.492;2023-11-19T11:00:27;29.85;29.72
65472;DHT22;52068;50.710;14.492;2023-11-19T11:02:56;29.95;29.53
65472;DHT22;52068;50.710;14.492;2023-11-19T11:05:26;29.98;29.44
65472;DHT22;52068;50.710;14.492;2023-11-19T11:07:52;29.84;29.75
65472;DHT22;52068;50.710;14.492;2023-11-19T11:10:22;29.66;29.66
65472;DHT22;52068;50.710;14.492;2023-11-19T11:12:52;29.53;28.69
65472;DHT22;52068;50.710;14.492;2023-11-19T11:15:25;29.38;28.86
65472;DHT22;52068;50.710;14.492;2023-11-19T11:18:00;29.11;30.39
65472;DHT22;52068;50.710;14.492;2023-11-19T11:20:33;28.82;30.99
65472;DHT22;52068;50.710;14.492;2023-11-19T11:31:52;27.54;33.02
65472;DHT22;52068;50.710;14.492;2023-11-19T11:37:12;27.02;33.98
65472;DHT22;52068;50.710;14.492;2023-11-19T11:39:40;26.88;34.26
65472;DHT22;52068;50.710;14.492;2023-11-19T11:44:59;26.86;34.32
65472;DHT22;52068;50.710;14.492;2023-11-19T11:47:25;27.10;33.92
65472;DHT22;52068;50.710;14.492;2023-11-19T11:49:51;27.46;33.45
65472;DHT22;52068;50.710;14.492;2023-11-19T11:52:17;27.78;32.88
65472;DHT22;52068;50.710;14.492;2023-11-19T11:54:44;28.11;32.35
65472;DHT22;52068;50.710;14.492;2023-11-19T11:57:14;28.46;31.79
65472;DHT22;52068;50.710;14.492;2023-11-19T12:02:11;29.06;30.85
65472;DHT22;52068;50.710;14.492;2023-11-19T12:04:38;29.33;30.53
65472;DHT22;52068;50.710;14.492;2023-11-19T12:07:23;29.51;30.16
65472;DHT22;52068;50.710;14.492;2023-11-19T12:09:56;29.68;29.90
65472;DHT22;52068;50.710;14.492;2023-11-19T12:12:32;29.76;29.76
65472;DHT22;52068;50.710;14.492;2023-11-19T12:20:03;29.64;29.98
65472;DHT22;52068;50.710;14.492;2023-11-19T12:22:31;29.48;30.14
65472;DHT22;52068;50.710;14.492;2023-11-19T12:24:56;29.26;30.37
65472;DHT22;52068;50.710;14.492;2023-11-19T12:27:22;29.04;30.74
65472;DHT22;52068;50.710;14.492;2023-11-19T12:29:48;28.83;31.12
65472;DHT22;52068;50.710;14.492;2023-11-19T12:32:14;28.59;31.50
65472;DHT22;52068;50.710;14.492;2023-11-19T12:34:39;28.41;31.82
65472;DHT22;52068;50.710;14.492;2023-11-19T12:37:05;28.16;32.15
65472;DHT22;52068;50.710;14.492;2023-11-19T12:39:31;27.95;32.44
65472;DHT22;52068;50.710;14.492;2023-11-19T12:41:56;27.76;32.86
65472;DHT22;52068;50.710;14.492;2023-11-19T12:44:25;27.57;33.16
65472;DHT22;52068;50.710;14.492;2023-11-19T12:47:04;27.42;33.46
65472;DHT22;52068;50.710;14.492;2023-11-19T12:49:29;27.33;33.70
65472;DHT22;52068;50.710;14.492;2023-11-19T12:51:55;27.22;33.80
65472;DHT22;52068;50.710;14.492;2023-11-19T12:54:34;27.25;33.77
65472;DHT22;52068;50.710;14.492;2023-11-19T12:57:00;27.35;33.64
65472;DHT22;52068;50.710;14.492;2023-11-19T12:59:25;27.46;33.44
65472;DHT22;52068;50.710;14.492;2023-11-19T13:01:56;27.70;33.02
65472;DHT22;52068;50.710;14.492;2023-11-19T13:04:22;27.95;32.70
65472;DHT22;52068;50.710;14.492;2023-11-19T13:06:47;28.22;32.20
65472;DHT22;52068;50.710;14.492;2023-11-19T13:09:26;28.48;31.78
65472;DHT22;52068;50.710;14.492;2023-11-19T13:11:51;28.72;31.40
65472;DHT22;52068;50.710;14.492;2023-11-19T13:14:18;28.92;31.16
65472;DHT22;52068;50.710;14.492;2023-11-19T13:16:44;29.11;30.89
65472;DHT22;52068;50.710;14.492;2023-11-19T13:19:13;29.24;30.65
65472;DHT22;52068;50.710;14.492;2023-11-19T13:21:40;29.39;30.35
65472;DHT22;52068;50.710;14.492;2023-11-19T13:24:06;29.54;30.18
65472;DHT22;52068;50.710;14.492;2023-11-19T13:26:32;29.65;30.05
65472;DHT22;52068;50.710;14.492;2023-11-19T13:28:57;29.71;29.96
65472;DHT22;52068;50.710;14.492;2023-11-19T13:31:22;29.76;29.80
65472;DHT22;52068;50.710;14.492;2023-11-19T13:33:48;29.79;29.81
65472;DHT22;52068;50.710;14.492;2023-11-19T13:36:13;29.76;29.89
65472;DHT22;52068;50.710;14.492;2023-11-19T13:38:39;29.65;30.08
65472;DHT22;52068;50.710;14.492;2023-11-19T13:41:07;29.53;31.70
65472;DHT22;52068;50.710;14.492;2023-11-19T13:43:35;29.41;31.24
65472;DHT22;52068;50.710;14.492;2023-11-19T13:46:00;29.28;31.03
65472;DHT22;52068;50.710;14.492;2023-11-19T13:48:26;29.16;31.12
65472;DHT22;52068;50.710;14.492;2023-11-19T13:50:52;29.02;31.39
65472;DHT22;52068;50.710;14.492;2023-11-19T13:53:18;28.84;31.58
65472;DHT22;52068;50.710;14.492;2023-11-19T13:55:43;28.67;31.86
65472;DHT22;52068;50.710;14.492;2023-11-19T13:58:09;28.53;32.06
65472;DHT22;52068;50.710;14.492;2023-11-19T14:00:35;28.36;32.34
65472;DHT22;52068;50.710;14.492;2023-11-19T14:03:02;28.28;34.36
65472;DHT22;52068;50.710;14.492;2023-11-19T14:05:27;28.14;35.16
65472;DHT22;52068;50.710;14.492;2023-11-19T14:07:53;28.09;36.34
65472;DHT22;52068;50.710;14.492;2023-11-19T14:10:19;28.05;35.67
65472;DHT22;52068;50.710;14.492;2023-11-19T14:12:44;28.08;36.09
65472;DHT22;52068;50.710;14.492;2023-11-19T14:15:10;28.16;35.44
65472;DHT22;52068;50.710;14.492;2023-11-19T14:17:38;28.32;34.66
65472;DHT22;52068;50.710;14.492;2023-11-19T14:20:04;28.49;34.38
65472;DHT22;52068;50.710;14.492;2023-11-19T14:22:42;28.80;33.73
65472;DHT22;52068;50.710;14.492;2023-11-19T14:25:11;29.17;33.05
65472;DHT22;52068;50.710;14.492;2023-11-19T14:27:37;29.59;32.30
65472;DHT22;52068;50.710;14.492;2023-11-19T14:30:11;30.02;31.51
65472;DHT22;52068;50.710;14.492;2023-11-19T14:32:38;30.43;31.44
65472;DHT22;52068;50.710;14.492;2023-11-19T14:35:04;30.70;28.99
65472;DHT22;52068;50.710;14.492;2023-11-19T14:37:30;30.98;27.07
65472;DHT22;52068;50.710;14.492;2023-11-19T14:39:59;31.10;26.52
65472;DHT22;52068;50.710;14.492;2023-11-19T14:42:25;31.22;26.28
65472;DHT22;52068;50.710;14.492;2023-11-19T14:44:52;31.38;26.61
65472;DHT22;52068;50.710;14.492;2023-11-19T14:47:24;31.52;26.49
65472;DHT22;52068;50.710;14.492;2023-11-19T14:49:50;31.66;26.23
65472;DHT22;52068;50.710;14.492;2023-11-19T14:52:15;31.77;26.16
65472;DHT22;52068;50.710;14.492;2023-11-19T14:54:41;31.85;26.12
65472;DHT22;52068;50.710;14.492;2023-11-19T14:57:06;31.93;26.13
65472;DHT22;52068;50.710;14.492;2023-11-19T14:59:35;31.99;26.07
65472;DHT22;52068;50.710;14.492;2023-11-19T15:02:01;32.02;26.12
65472;DHT22;52068;50.710;14.492;2023-11-19T15:04:27;32.05;26.20
65472;DHT22;52068;50.710;14.492;2023-11-19T15:06:53;31.97;26.30
65472;DHT22;52068;50.710;14.492;2023-11-19T15:09:19;31.82;26.51
65472;DHT22;52068;50.710;14.492;2023-11-19T15:11:46;31.59;26.77
65472;DHT22;52068;50.710;14.492;2023-11-19T15:14:15;31.31;27.15
65472;DHT22;52068;50.710;14.492;2023-11-19T15:16:42;30.99;27.64
65472;DHT22;52068;50.710;14.492;2023-11-19T15:19:08;30.61;28.15
65472;DHT22;52068;50.710;14.492;2023-11-19T15:21:34;30.26;28.66
65472;DHT22;52068;50.710;14.492;2023-11-19T15:23:59;29.81;29.25
65472;DHT22;52068;50.710;14.492;2023-11-19T15:26:25;29.41;29.84
65472;DHT22;52068;50.710;14.492;2023-11-19T15:28:50;28.99;30.50
65472;DHT22;52068;50.710;14.492;2023-11-19T15:31:16;28.60;31.09
65472;DHT22;52068;50.710;14.492;2023-11-19T15:33:42;28.24;31.76
65472;DHT22;52068;50.710;14.492;2023-11-19T15:36:08;27.85;32.29
65472;DHT22;52068;50.710;14.492;2023-11-19T15:38:36;27.51;32.91